Time;durP1;ratioP1;P1;durP2;ratioP2;P2;SDS_P1;SDS_P2;PMS_P1;PMS_P2;Temp;Humidity;BMP_temperature;BMP_pressure;BME280_temperature;BME280_humidity;BME280_pressure;Samples;Min_cycle;Max_cycle;Signal;HPM_P1;HPM_P2
2022/05/23 00:00:19;;;;;;;8.50;5.10;;;;;;;17.74;47.82;100274.91;692700;28;1103;-80
2022/05/23 00:00:39;;;;;;;8.23;4.97;;;;;;;17.71;47.78;100274.94;690752;28;1243;-81
2022/05/23 00:01:00;;;;;;;7.32;4.72;;;;;;;17.64;47.85;100260.06;682183;29;1238;-81
2022/05/23 00:01:23;;;;;;;6.20;4.70;;;;;;;17.68;47.79;100265.28;688034;28;1210;-80
2022/05/23 00:01:44;;;;;;;8.27;5.00;;;;;;;17.65;47.90;100264.44;685464;28;845;-80
2022/05/23 00:02:06;;;;;;;10.50;5.10;;;;;;;17.68;47.88;100265.28;687530;28;1169;-81
2022/05/23 00:02:26;;;;;;;11.00;5.00;;;;;;;17.67;47.88;100262.66;685260;28;1343;-80
2022/05/23 00:02:47;;;;;;;11.05;4.90;;;;;;;17.65;47.84;100259.16;688125;28;1305;-80
2022/05/23 00:03:07;;;;;;;9.97;5.00;;;;;;;17.65;47.86;100265.31;688077;28;984;-80
2022/05/23 00:03:28;;;;;;;8.73;5.10;;;;;;;17.71;48.03;100274.94;688096;28;1229;-81
2022/05/23 00:03:49;;;;;;;8.95;5.38;;;;;;;17.73;47.93;100277.53;688004;28;1118;-80
2022/05/23 00:04:10;;;;;;;7.82;5.20;;;;;;;17.66;47.98;100255.63;688073;28;1190;-81
2022/05/23 00:04:31;;;;;;;8.80;5.15;;;;;;;17.65;47.88;100261.81;685396;28;1161;-81
2022/05/23 00:04:51;;;;;;;8.30;4.90;;;;;;;17.68;48.00;100264.41;690284;28;1170;-81
2022/05/23 00:05:12;;;;;;;8.00;4.53;;;;;;;17.65;48.13;100259.16;690694;28;1244;-80
2022/05/23 00:05:33;;;;;;;8.32;4.70;;;;;;;17.72;47.96;100275.81;693618;28;760;-80
2022/05/23 00:05:54;;;;;;;10.40;4.60;;;;;;;17.65;47.98;100269.72;688076;28;1061;-81
2022/05/23 00:06:18;;;;;;;10.60;4.80;;;;;;;17.68;47.84;100272.31;690719;28;1244;-80
2022/05/23 00:06:39;;;;;;;11.32;5.20;;;;;;;17.64;47.93;100262.69;690692;28;1919;-80
2022/05/23 00:07:02;;;;;;;8.65;5.32;;;;;;;17.67;47.92;100274.09;690406;28;1139;-80
2022/05/23 00:07:32;;;;;;;8.85;5.47;;;;;;;17.69;48.12;100281.97;690818;28;1264;-80
2022/05/23 00:07:54;;;;;;;7.88;5.38;;;;;;;17.61;47.91;100267.97;690471;28;1370;-81
2022/05/23 00:08:15;;;;;;;7.35;5.00;;;;;;;17.66;48.04;100269.69;685367;28;1337;-81
2022/05/23 00:08:36;;;;;;;7.47;4.95;;;;;;;17.57;48.03;100264.50;682567;29;1201;-80
2022/05/23 00:08:57;;;;;;;8.95;4.90;;;;;;;17.65;48.05;100267.09;685159;28;1136;-80
2022/05/23 00:09:18;;;;;;;9.30;5.00;;;;;;;17.63;47.85;100266.19;688067;28;1163;-80
2022/05/23 00:09:40;;;;;;;8.85;5.10;;;;;;;17.66;48.03;100271.47;684843;28;784;-81
2022/05/23 00:10:03;;;;;;;7.45;5.05;;;;;;;17.60;47.76;100260.97;687183;28;1289;-80
2022/05/23 00:10:24;;;;;;;9.20;5.10;;;;;;;17.62;47.91;100267.09;690802;28;1386;-80
2022/05/23 00:10:45;;;;;;;9.02;5.30;;;;;;;17.63;48.07;100266.19;688042;28;1093;-80
2022/05/23 00:11:05;;;;;;;7.68;5.18;;;;;;;17.66;47.89;100276.75;690676;28;1114;-81
2022/05/23 00:11:26;;;;;;;7.10;5.20;;;;;;;17.64;48.02;100267.97;685436;28;1278;-80
2022/05/23 00:11:47;;;;;;;9.18;5.10;;;;;;;17.71;47.93;100274.06;682761;29;1143;-80
2022/05/23 00:12:08;;;;;;;9.13;5.10;;;;;;;17.66;47.72;100272.31;682531;29;1462;-80
2022/05/23 00:12:29;;;;;;;10.30;5.10;;;;;;;17.63;47.96;100263.56;690714;28;1220;-80
2022/05/23 00:12:49;;;;;;;8.43;5.00;;;;;;;17.59;47.96;100261.84;690676;28;1294;-80
2022/05/23 00:13:10;;;;;;;9.10;5.37;;;;;;;17.69;48.01;100284.63;688124;28;1099;-80
2022/05/23 00:13:30;;;;;;;6.90;5.07;;;;;;;17.66;48.05;100267.03;682900;29;855;-80
2022/05/23 00:13:51;;;;;;;7.30;5.10;;;;;;;17.69;47.77;100274.06;690594;28;1173;-81
2022/05/23 00:14:13;;;;;;;8.05;5.05;;;;;;;17.60;48.08;100261.84;690626;28;1264;-80
2022/05/23 00:14:33;;;;;;;9.95;5.70;;;;;;;17.65;47.89;100269.72;688143;28;808;-80
2022/05/23 00:14:54;;;;;;;9.53;5.50;;;;;;;17.62;48.04;100264.44;690207;28;1133;-80
2022/05/23 00:15:15;;;;;;;8.25;5.25;;;;;;;17.65;48.01;100264.44;687577;28;1177;-81
2022/05/23 00:15:35;;;;;;;7.70;5.00;;;;;;;17.66;47.95;100271.47;688075;28;1389;-80
2022/05/23 00:15:57;;;;;;;8.20;5.50;;;;;;;17.68;47.93;100269.69;690098;28;1238;-81
2022/05/23 00:16:25;;;;;;;8.10;5.60;;;;;;;17.70;47.82;100275.81;693466;28;953;-81
2022/05/23 00:16:48;;;;;;;8.57;5.65;;;;;;;17.68;47.90;100267.03;692979;28;1252;-80
2022/05/23 00:17:12;;;;;;;7.97;5.35;;;;;;;17.67;47.89;100267.94;687898;28;1263;-80
2022/05/23 00:17:35;;;;;;;8.73;5.32;;;;;;;17.73;47.87;100273.16;688137;28;967;-80
2022/05/23 00:17:56;;;;;;;9.40;5.15;;;;;;;17.69;47.81;100266.16;693474;28;1280;-80
2022/05/23 00:18:17;;;;;;;9.17;5.30;;;;;;;17.72;47.73;100260.84;696169;28;994;-80
2022/05/23 00:18:37;;;;;;;7.07;5.10;;;;;;;17.76;47.84;100272.25;688126;28;826;-80
2022/05/23 00:18:58;;;;;;;6.38;5.30;;;;;;;17.65;47.86;100253.88;690744;28;982;-80
2022/05/23 00:19:19;;;;;;;6.90;5.57;;;;;;;17.74;48.07;100272.25;687964;28;1101;-80
2022/05/23 00:19:40;;;;;;;8.38;5.68;;;;;;;17.76;47.97;100262.56;690147;28;1123;-81
2022/05/23 00:20:05;;;;;;;7.97;5.35;;;;;;;17.79;47.81;100267.81;688048;28;1342;-82
2022/05/23 00:20:26;;;;;;;8.05;5.13;;;;;;;17.77;47.74;100266.94;691090;28;1345;-81
2022/05/23 00:20:47;;;;;;;7.15;4.95;;;;;;;17.78;47.84;100260.78;696245;28;1217;-80
2022/05/23 00:21:07;;;;;;;6.73;4.90;;;;;;;17.74;47.69;100258.19;690725;28;1264;-81
2022/05/23 00:21:28;;;;;;;6.55;4.90;;;;;;;17.74;47.70;100259.06;688084;28;1149;-81
2022/05/23 00:21:49;;;;;;;6.50;4.90;;;;;;;17.81;47.64;100266.03;687995;28;1070;-80
2022/05/23 00:22:10;;;;;;;7.55;5.20;;;;;;;17.76;47.81;100257.28;696092;28;1073;-80
2022/05/23 00:22:31;;;;;;;6.68;5.30;;;;;;;17.75;47.59;100255.53;685405;28;1118;-80
2022/05/23 00:22:52;;;;;;;7.20;5.40;;;;;;;17.74;47.73;100259.06;690413;28;1204;-80
2022/05/23 00:23:14;;;;;;;7.80;5.20;;;;;;;17.75;47.92;100255.53;685326;28;1358;-80
2022/05/23 00:23:34;;;;;;;8.32;5.20;;;;;;;17.83;47.72;100263.38;693428;28;1254;-81
2022/05/23 00:23:55;;;;;;;9.10;5.13;;;;;;;17.78;47.50;100263.41;690303;28;1139;-81
2022/05/23 00:24:16;;;;;;;8.40;5.15;;;;;;;17.83;47.54;100270.41;685318;28;1006;-80
2022/05/23 00:24:36;;;;;;;8.98;5.28;;;;;;;17.82;47.64;100261.63;690668;28;1161;-80
2022/05/23 00:24:58;;;;;;;9.17;5.43;;;;;;;17.81;47.37;100263.41;692921;28;1063;-80
2022/05/23 00:25:19;;;;;;;8.30;5.22;;;;;;;17.84;47.60;100261.59;696189;28;1130;-80
2022/05/23 00:25:41;;;;;;;7.78;5.32;;;;;;;17.81;47.66;100250.19;687975;28;1320;-80
2022/05/23 00:26:02;;;;;;;8.23;5.25;;;;;;;17.91;47.67;100273.84;687928;28;1156;-81
2022/05/23 00:26:23;;;;;;;8.65;5.35;;;;;;;17.91;47.60;100272.09;695499;28;1160;-80
2022/05/23 00:26:46;;;;;;;9.38;5.43;;;;;;;17.87;47.93;100258.94;685247;28;1976;-80
2022/05/23 00:27:10;;;;;;;8.60;5.75;;;;;;;17.88;47.58;100261.56;685212;28;998;-80
2022/05/23 00:27:31;;;;;;;7.93;5.25;;;;;;;17.83;47.68;100246.66;690735;28;842;-81
2022/05/23 00:27:54;;;;;;;8.20;5.20;;;;;;;17.88;47.68;100260.69;688497;28;1256;-80
2022/05/23 00:28:15;;;;;;;7.87;5.20;;;;;;;17.91;47.65;100260.66;687995;28;1123;-81
2022/05/23 00:28:35;;;;;;;9.00;5.78;;;;;;;17.90;47.59;100253.63;690746;28;800;-80
2022/05/23 00:28:56;;;;;;;8.80;5.80;;;;;;;17.87;47.53;100256.28;690656;28;977;-81
2022/05/23 00:29:17;;;;;;;7.80;5.60;;;;;;;17.91;47.62;100260.66;685277;28;1220;-81
2022/05/23 00:29:38;;;;;;;7.75;5.65;;;;;;;17.93;47.56;100257.13;687438;28;781;-80
2022/05/23 00:29:59;;;;;;;6.93;5.20;;;;;;;17.93;47.67;100258.88;690485;28;1146;-80
2022/05/23 00:30:25;;;;;;;7.20;5.35;;;;;;;17.94;47.41;100265.88;690621;28;1084;-80
2022/05/23 00:30:45;;;;;;;6.90;5.20;;;;;;;17.87;47.62;100248.38;685307;28;780;-80
2022/05/23 00:31:08;;;;;;;7.90;5.13;;;;;;;17.87;47.49;100238.69;690583;28;1115;-80
2022/05/23 00:31:29;;;;;;;8.25;5.20;;;;;;;17.97;47.68;100255.31;690743;28;903;-80
2022/05/23 00:35:19;;;;;;;7.78;4.90;;;;;;;17.97;47.66;100257.06;693237;28;1245;-80
2022/05/23 00:35:51;;;;;;;6.60;4.65;;;;;;;17.97;47.59;100255.31;696156;28;1238;-81
2022/05/23 00:36:11;;;;;;;6.47;4.90;;;;;;;17.92;47.68;100246.56;690612;28;1133;-81
2022/05/23 00:36:33;;;;;;;7.00;5.00;;;;;;;17.97;47.65;100254.44;692657;28;1280;-81
2022/05/23 00:36:54;;;;;;;8.02;5.35;;;;;;;17.89;47.65;100241.34;693313;28;1002;-81
2022/05/23 00:37:15;;;;;;;7.90;4.93;;;;;;;17.99;47.54;100255.28;687956;28;1328;-81
2022/05/23 00:37:35;;;;;;;8.40;5.00;;;;;;;17.94;47.61;100250.06;690055;28;1183;-81
2022/05/23 00:37:56;;;;;;;7.25;4.85;;;;;;;17.97;47.69;100255.31;690595;28;1302;-81
2022/05/23 00:38:18;;;;;;;7.38;5.07;;;;;;;17.90;47.62;100243.94;693277;28;1224;-80
2022/05/23 00:38:38;;;;;;;7.03;4.90;;;;;;;17.98;47.51;100250.91;685320;28;1039;-81
2022/05/23 00:38:59;;;;;;;7.50;5.07;;;;;;;17.94;47.58;100244.78;687861;28;1039;-81
2022/05/23 00:39:20;;;;;;;7.88;5.00;;;;;;;17.91;47.63;100244.81;685204;28;1170;-80
2022/05/23 00:39:42;;;;;;;6.85;4.97;;;;;;;17.96;47.72;100243.00;686972;28;1100;-80
2022/05/23 00:40:04;;;;;;;6.38;4.97;;;;;;;17.99;47.67;100255.28;696041;28;1059;-82
2022/05/23 00:40:34;;;;;;;6.60;5.00;;;;;;;17.97;47.74;100247.41;693469;28;823;-80
2022/05/23 00:43:15;;;;;;;9.40;5.15;;;;;;;17.95;47.90;100247.41;696138;28;1001;-80
2022/05/23 00:43:36;;;;;;;9.98;5.35;;;;;;;17.93;47.74;100246.56;693515;28;905;-80
2022/05/23 00:44:01;;;;;;;10.85;5.15;;;;;;;17.95;47.88;100249.19;690648;28;1062;-81
2022/05/23 00:44:25;;;;;;;10.68;5.20;;;;;;;17.92;48.07;100238.66;687928;28;918;-80
2022/05/23 00:44:46;;;;;;;8.57;5.32;;;;;;;17.89;47.80;100236.06;695582;28;1353;-82
2022/05/23 00:45:07;;;;;;;6.90;5.25;;;;;;;17.94;47.95;100252.69;692857;28;1319;-80
2022/05/23 00:45:27;;;;;;;7.07;5.10;;;;;;;17.90;47.93;100238.66;687956;28;1309;-81
2022/05/23 00:45:59;;;;;;;7.00;5.20;;;;;;;18.00;47.95;100250.00;687829;28;1328;-80
2022/05/23 00:46:20;;;;;;;8.40;5.40;;;;;;;17.93;47.82;100235.13;687796;28;1283;-81
2022/05/23 00:46:58;;;;;;;7.60;5.40;;;;;;;17.93;47.90;100236.00;685301;28;1970;-82
2022/05/23 00:47:21;;;;;;;6.90;5.10;;;;;;;17.97;47.84;100244.75;682491;29;1124;-80
2022/05/23 00:47:42;;;;;;;8.38;4.90;;;;;;;17.97;47.95;100242.13;687925;28;1235;-81
2022/05/23 00:48:03;;;;;;;7.82;4.78;;;;;;;17.95;47.86;100236.00;685005;28;1225;-81
2022/05/23 00:48:29;;;;;;;6.95;4.82;;;;;;;18.00;47.71;100239.44;682466;29;1379;-80
2022/05/23 00:48:52;;;;;;;6.85;4.68;;;;;;;17.98;47.83;100241.22;685167;28;1283;-81
2022/05/23 00:49:13;;;;;;;7.10;5.00;;;;;;;17.95;47.81;100230.72;687912;28;1236;-80
2022/05/23 00:49:36;;;;;;;7.40;5.20;;;;;;;18.02;47.93;100242.91;690215;28;819;-81
2022/05/23 00:49:57;;;;;;;7.80;5.30;;;;;;;17.99;47.79;100235.03;690146;28;1474;-83
2022/05/23 00:50:18;;;;;;;8.25;5.03;;;;;;;17.98;47.83;100232.41;685185;28;1112;-81
2022/05/23 00:50:45;;;;;;;7.28;4.90;;;;;;;17.98;47.83;100228.03;687668;28;1271;-81
2022/05/23 00:51:11;;;;;;;6.13;4.70;;;;;;;18.00;47.89;100234.16;690450;28;1134;-81
2022/05/23 00:51:32;;;;;;;7.03;4.68;;;;;;;18.02;47.81;100237.63;687964;28;1355;-81
2022/05/23 00:51:58;;;;;;;6.82;4.80;;;;;;;17.93;47.92;100227.19;689202;28;1262;-80
2022/05/23 00:52:49;;;;;;;6.72;5.28;;;;;;;18.04;47.83;100238.53;690177;28;1372;-81
2022/05/23 00:53:12;;;;;;;8.88;5.40;;;;;;;18.01;47.71;100242.97;685236;28;1870;-80
2022/05/23 00:53:40;;;;;;;9.82;5.43;;;;;;;18.00;47.67;100228.88;687886;28;1429;-81
2022/05/23 00:54:06;;;;;;;8.57;5.50;;;;;;;18.02;47.61;100232.34;687895;28;1000;-80
2022/05/23 00:54:34;;;;;;;9.05;5.72;;;;;;;17.96;47.83;100229.81;687878;28;1352;-80
2022/05/23 00:54:59;;;;;;;8.48;5.70;;;;;;;18.00;47.92;100236.78;690068;28;1366;-80
2022/05/23 00:55:26;;;;;;;8.00;5.28;;;;;;;18.01;47.98;100233.25;687900;28;1097;-80
2022/05/23 00:55:52;;;;;;;7.38;4.93;;;;;;;17.93;47.78;100224.56;687903;28;1104;-81
2022/05/23 00:56:16;;;;;;;6.90;5.15;;;;;;;17.92;47.68;100230.72;685178;28;1355;-81
2022/05/23 00:56:46;;;;;;;6.50;5.20;;;;;;;17.96;47.89;100227.19;687843;28;1550;-80
2022/05/23 00:57:12;;;;;;;7.65;5.20;;;;;;;17.98;47.83;100235.94;689404;28;1356;-81
2022/05/23 00:57:40;;;;;;;8.48;5.10;;;;;;;18.01;47.84;100241.19;687888;28;1181;-80
2022/05/23 00:58:05;;;;;;;7.60;5.20;;;;;;;17.92;47.81;100222.81;687751;28;1110;-80
2022/05/23 00:58:31;;;;;;;6.47;5.28;;;;;;;18.03;47.90;100243.81;682347;29;1450;-81
2022/05/23 00:58:57;;;;;;;7.75;5.10;;;;;;;18.01;47.70;100237.69;685152;28;888;-81
2022/05/23 00:59:27;;;;;;;7.68;4.80;;;;;;;18.00;47.87;100228.88;690504;28;1645;-80
2022/05/23 00:59:48;;;;;;;6.55;4.85;;;;;;;17.96;47.87;100216.63;690150;28;1297;-80
2022/05/23 01:00:11;;;;;;;8.05;5.32;;;;;;;18.02;47.92;100236.78;685306;28;1311;-82
2022/05/23 01:00:33;;;;;;;8.10;5.43;;;;;;;17.95;47.73;100221.00;687936;28;1391;-81
2022/05/23 01:00:58;;;;;;;11.40;5.70;;;;;;;18.00;47.85;100231.50;687854;28;968;-81
2022/05/23 01:01:22;;;;;;;11.38;5.70;;;;;;;17.99;47.96;100232.41;690466;28;1233;-80
2022/05/23 01:01:43;;;;;;;11.30;5.57;;;;;;;17.94;47.75;100213.09;693410;28;1188;-80
2022/05/23 01:02:05;;;;;;;7.72;4.90;;;;;;;17.98;47.70;100219.22;682306;28;1132;-80
2022/05/23 01:02:36;;;;;;;7.40;4.80;;;;;;;18.01;47.60;100229.75;685197;28;1252;-80
2022/05/23 01:03:00;;;;;;;7.60;5.28;;;;;;;18.05;47.94;100240.25;685241;28;1095;-81
2022/05/23 01:03:21;;;;;;;7.15;5.55;;;;;;;18.02;47.76;100228.88;688004;28;945;-80
2022/05/23 01:03:42;;;;;;;7.20;5.55;;;;;;;18.00;47.81;100226.22;687939;28;1196;-81
2022/05/23 01:04:05;;;;;;;7.73;5.57;;;;;;;18.04;47.90;100230.59;687829;28;1001;-81
2022/05/23 01:04:29;;;;;;;7.95;5.57;;;;;;;18.04;47.75;100235.88;690634;28;1094;-81
2022/05/23 01:04:50;;;;;;;9.40;5.60;;;;;;;18.09;47.73;100231.41;685029;28;1131;-81
2022/05/23 01:05:11;;;;;;;10.43;5.80;;;;;;;18.08;47.52;100226.16;687852;28;1462;-80
2022/05/23 01:05:36;;;;;;;9.70;5.57;;;;;;;18.09;47.59;100223.47;690635;28;1217;-81
2022/05/23 01:05:56;;;;;;;10.82;4.90;;;;;;;18.09;47.64;100220.84;687784;28;1444;-81
2022/05/23 01:06:17;;;;;;;11.10;4.90;;;;;;;18.19;47.61;100234.00;692733;28;1273;-80
2022/05/23 01:06:43;;;;;;;11.38;5.10;;;;;;;18.14;47.46;100219.91;687842;28;1985;-81
2022/05/23 01:07:05;;;;;;;8.13;5.20;;;;;;;18.15;47.55;100226.97;687730;28;1022;-81
2022/05/23 01:07:26;;;;;;;6.82;4.90;;;;;;;18.16;47.55;100226.09;690667;28;1374;-81
2022/05/23 01:07:49;;;;;;;6.73;4.73;;;;;;;18.15;47.55;100219.06;687896;28;1165;-81
2022/05/23 01:08:14;;;;;;;7.50;4.40;;;;;;;18.20;47.44;100227.81;693438;28;1145;-81
2022/05/23 01:08:42;;;;;;;9.10;4.82;;;;;;;18.23;47.29;100230.41;690293;28;1099;-80
2022/05/23 01:09:04;;;;;;;9.85;5.30;;;;;;;18.24;47.40;100232.13;692457;28;1102;-81
2022/05/23 01:09:26;;;;;;;10.65;5.50;;;;;;;18.15;47.51;100211.13;689808;28;1130;-80
2022/05/23 01:09:48;;;;;;;9.48;5.50;;;;;;;18.22;47.28;100223.38;687113;28;1130;-79
2022/05/23 01:10:10;;;;;;;8.00;5.43;;;;;;;18.15;47.29;100212.03;690473;28;1290;-81
2022/05/23 01:10:33;;;;;;;6.05;5.30;;;;;;;18.15;47.38;100222.59;693404;28;768;-80
2022/05/23 01:10:53;;;;;;;6.18;5.10;;;;;;;18.25;47.38;100236.53;687896;28;1021;-80
2022/05/23 01:11:15;;;;;;;9.00;5.40;;;;;;;18.18;47.33;100219.91;692921;28;1390;-80
2022/05/23 01:11:37;;;;;;;8.85;5.40;;;;;;;18.21;47.23;100227.75;687841;28;1109;-80
2022/05/23 01:11:59;;;;;;;8.43;5.35;;;;;;;18.23;47.26;100230.41;685148;28;987;-80
2022/05/23 01:12:21;;;;;;;7.78;4.70;;;;;;;18.19;47.35;100223.44;687670;28;1381;-81
2022/05/23 01:12:42;;;;;;;8.77;5.05;;;;;;;18.15;47.38;100213.78;687890;28;910;-80
2022/05/23 01:13:03;;;;;;;11.48;5.80;;;;;;;18.14;47.28;100212.00;690549;28;1169;-80
2022/05/23 01:13:24;;;;;;;10.05;5.88;;;;;;;18.17;47.13;100214.63;685226;28;885;-80
2022/05/23 01:13:45;;;;;;;8.90;5.47;;;;;;;18.21;47.34;100221.63;693331;28;1300;-80
2022/05/23 01:14:06;;;;;;;7.55;5.00;;;;;;;18.24;47.27;100226.00;693218;28;1124;-80
2022/05/23 01:14:50;;;;;;;8.75;5.10;;;;;;;18.26;47.34;100230.34;688015;28;799;-80
2022/05/23 01:15:18;;;;;;;7.35;5.15;;;;;;;18.21;47.18;100211.06;687760;28;1246;-80
2022/05/23 01:15:47;;;;;;;6.38;5.40;;;;;;;18.28;47.27;100223.31;690567;28;1292;-80
2022/05/23 01:16:07;;;;;;;8.02;5.40;;;;;;;18.17;47.44;100204.06;692799;28;1263;-80
2022/05/23 01:16:37;;;;;;;9.63;5.40;;;;;;;18.16;47.42;100208.50;687879;28;1259;-80
2022/05/23 01:16:58;;;;;;;8.57;5.30;;;;;;;18.18;47.33;100205.81;687490;28;1358;-81
2022/05/23 01:17:21;;;;;;;8.02;5.30;;;;;;;18.28;47.22;100228.59;685241;28;1159;-80
2022/05/23 01:17:42;;;;;;;8.23;5.13;;;;;;;18.24;47.44;100226.84;690591;28;1362;-81
2022/05/23 01:18:04;;;;;;;8.07;5.28;;;;;;;18.22;47.34;100220.72;690477;28;1099;-81
2022/05/23 01:18:25;;;;;;;7.40;5.30;;;;;;;18.30;47.15;100232.06;687872;28;851;-80
2022/05/23 01:18:46;;;;;;;6.72;5.03;;;;;;;18.25;47.32;100225.97;687808;28;1236;-81
2022/05/23 01:19:07;;;;;;;6.85;5.10;;;;;;;18.18;47.18;100211.09;687776;28;1163;-83
2022/05/23 01:19:28;;;;;;;7.38;5.20;;;;;;;18.21;47.31;100209.28;691120;28;1732;-80
2022/05/23 01:19:49;;;;;;;7.35;5.28;;;;;;;18.24;47.24;100216.28;689718;28;1257;-80
2022/05/23 01:20:10;;;;;;;6.57;5.20;;;;;;;18.22;47.24;100203.09;698638;28;1253;-80
2022/05/23 01:20:31;;;;;;;7.20;5.13;;;;;;;18.25;47.35;100218.03;696066;28;1435;-80
2022/05/23 01:20:59;;;;;;;6.83;4.97;;;;;;;18.22;47.27;100202.25;690557;28;965;-80
2022/05/23 01:21:36;;;;;;;6.88;4.88;;;;;;;18.26;47.32;100209.22;687898;28;1017;-80
2022/05/23 01:22:04;;;;;;;7.78;5.40;;;;;;;18.30;47.26;100217.97;693057;28;1198;-80
2022/05/23 01:22:50;;;;;;;6.70;4.95;;;;;;;18.27;47.57;100207.47;690566;28;1438;-80
2022/05/23 01:24:04;;;;;;;8.65;4.90;;;;;;;18.28;47.41;100207.47;690715;28;772;-80
2022/05/23 01:24:59;;;;;;;8.45;4.78;;;;;;;18.30;47.36;100205.66;693257;28;1235;-80
2022/05/23 01:25:31;;;;;;;7.93;4.30;;;;;;;18.24;47.49;100200.44;692432;28;1070;-80
2022/05/23 01:25:52;;;;;;;5.30;4.43;;;;;;;18.25;47.45;100204.84;682369;28;1291;-80
2022/05/23 01:26:32;;;;;;;7.57;5.00;;;;;;;18.24;47.48;100207.50;687822;28;1069;-80
2022/05/23 01:26:55;;;;;;;10.40;5.10;;;;;;;18.20;47.54;100196.13;690275;28;938;-80
2022/05/23 01:27:30;;;;;;;10.50;5.30;;;;;;;18.10;47.72;100182.13;687879;28;1144;-80
2022/05/23 01:27:53;;;;;;;10.05;5.82;;;;;;;18.18;47.80;100211.09;692910;28;1210;-80
2022/05/23 01:28:15;;;;;;;8.45;5.45;;;;;;;18.09;47.81;100197.06;687651;28;1295;-80
2022/05/23 01:28:38;;;;;;;7.32;5.13;;;;;;;18.12;47.89;100196.16;690551;28;1308;-81
2022/05/23 01:29:00;;;;;;;6.00;4.70;;;;;;;18.07;48.06;100185.66;693222;28;860;-80
2022/05/23 01:29:45;;;;;;;6.45;5.13;;;;;;;18.07;48.35;100193.59;689678;28;1216;-80
2022/05/23 01:30:07;;;;;;;7.30;5.03;;;;;;;18.08;48.27;100192.69;690424;28;1273;-80
2022/05/23 01:30:40;;;;;;;7.72;4.80;;;;;;;18.11;48.51;100193.53;695939;28;1381;-80
2022/05/23 01:31:12;;;;;;;7.85;5.10;;;;;;;18.06;48.66;100189.22;687789;28;1268;-81
2022/05/23 01:31:33;;;;;;;7.53;5.30;;;;;;;18.02;48.67;100179.56;685282;28;848;-81
2022/05/23 01:32:04;;;;;;;9.25;5.47;;;;;;;18.01;48.71;100182.25;687677;28;1092;-80
2022/05/23 01:32:27;;;;;;;9.55;5.03;;;;;;;18.00;48.87;100185.78;685138;28;1087;-80
2022/05/23 01:32:50;;;;;;;8.50;5.18;;;;;;;17.94;49.07;100176.16;684969;28;1178;-81
2022/05/23 01:33:12;;;;;;;8.20;5.27;;;;;;;17.95;49.04;100175.28;687676;28;1070;-80
2022/05/23 01:33:34;;;;;;;7.10;5.35;;;;;;;17.97;49.05;100186.69;682593;29;788;-80
2022/05/23 01:33:57;;;;;;;7.35;5.20;;;;;;;17.99;49.13;100187.53;687669;28;1009;-80
2022/05/23 01:34:18;;;;;;;8.23;5.40;;;;;;;17.90;49.10;100164.75;687820;28;1257;-80
2022/05/23 01:35:10;;;;;;;8.20;5.68;;;;;;;17.98;49.19;100183.16;688601;28;1621;-80
2022/05/23 01:35:31;;;;;;;8.82;5.43;;;;;;;17.96;49.11;100177.03;687773;28;1174;-80
2022/05/23 01:35:52;;;;;;;7.63;5.20;;;;;;;17.95;49.16;100184.06;687606;28;1412;-81
2022/05/23 01:36:14;;;;;;;8.30;5.00;;;;;;;17.93;49.26;100170.00;687792;28;1303;-80
2022/05/23 01:36:35;;;;;;;10.13;5.40;;;;;;;17.96;49.30;100184.94;694618;28;1236;-80
2022/05/23 01:36:59;;;;;;;9.17;5.60;;;;;;;17.89;49.36;100170.06;696018;28;976;-80
2022/05/23 01:37:23;;;;;;;9.25;5.57;;;;;;;17.94;49.24;100182.31;693175;28;874;-80
2022/05/23 01:37:52;;;;;;;9.20;5.30;;;;;;;17.94;49.23;100177.03;687731;28;1226;-80
2022/05/23 01:38:38;;;;;;;7.80;5.70;;;;;;;17.90;49.37;100171.81;690491;28;926;-80
2022/05/23 01:39:10;;;;;;;8.10;5.55;;;;;;;17.89;49.33;100170.91;687792;28;1104;-80
2022/05/23 01:39:30;;;;;;;9.15;5.60;;;;;;;17.88;49.54;100168.31;687258;28;1364;-80
2022/05/23 01:39:53;;;;;;;8.52;5.40;;;;;;;17.86;49.50;100167.44;684882;28;1122;-81
2022/05/23 01:40:27;;;;;;;6.53;5.10;;;;;;;17.85;49.39;100170.97;687707;28;1376;-80
2022/05/23 01:40:57;;;;;;;5.53;5.03;;;;;;;17.80;49.57;100164.00;684623;28;1170;-81
2022/05/23 01:41:18;;;;;;;5.60;5.10;;;;;;;17.87;49.49;100171.81;681687;29;1341;-80
2022/05/23 01:41:47;;;;;;;5.90;5.30;;;;;;;17.79;49.69;100153.47;690448;28;1241;-80
2022/05/23 01:42:08;;;;;;;6.95;5.22;;;;;;;17.81;49.73;100165.75;690365;28;1279;-80
2022/05/23 01:42:29;;;;;;;8.75;5.50;;;;;;;17.83;49.70;100168.38;690579;28;820;-80
2022/05/23 01:42:51;;;;;;;9.05;5.57;;;;;;;17.80;49.64;100161.38;687548;28;1065;-80
2022/05/23 01:43:11;;;;;;;9.50;5.60;;;;;;;17.75;49.76;100155.25;689734;28;1190;-80
2022/05/23 01:43:33;;;;;;;11.07;5.90;;;;;;;17.74;49.83;100158.78;685177;28;1213;-80
2022/05/23 01:44:17;;;;;;;8.35;5.15;;;;;;;17.85;49.94;100176.25;690460;28;1304;-80
2022/05/23 01:44:49;;;;;;;8.98;5.20;;;;;;;17.79;50.01;100166.66;685088;28;934;-80
2022/05/23 01:45:16;;;;;;;8.60;5.30;;;;;;;17.81;49.88;100162.22;682628;29;1100;-80
2022/05/23 01:45:38;;;;;;;7.00;5.15;;;;;;;17.79;50.13;100157.00;687728;28;1233;-81
2022/05/23 01:46:17;;;;;;;7.30;5.03;;;;;;;17.77;49.68;100157.91;686836;28;2014;-80
2022/05/23 01:46:58;;;;;;;8.20;5.10;;;;;;;17.77;49.77;100163.16;686727;28;1192;-80
2022/05/23 01:47:25;;;;;;;8.60;5.40;;;;;;;17.82;49.83;100177.16;684958;28;1186;-80
2022/05/23 01:47:49;;;;;;;7.18;5.25;;;;;;;17.83;49.81;100176.31;684395;28;1253;-80
2022/05/23 01:48:12;;;;;;;6.63;5.20;;;;;;;17.79;49.91;100172.81;693221;28;1213;-80
2022/05/23 01:48:33;;;;;;;6.85;5.10;;;;;;;17.76;49.86;100167.56;693212;28;1213;-81
2022/05/23 01:48:54;;;;;;;7.68;5.28;;;;;;;17.76;50.11;100166.72;687773;28;1255;-81
2022/05/23 01:49:16;;;;;;;7.32;5.22;;;;;;;17.73;49.92;100164.97;685106;28;1012;-80
2022/05/23 01:49:36;;;;;;;6.97;5.10;;;;;;;17.78;49.79;100176.31;694329;28;1202;-80
2022/05/23 01:50:10;;;;;;;6.57;5.30;;;;;;;17.79;49.87;100171.94;695967;28;1207;-80
2022/05/23 01:50:35;;;;;;;6.75;5.50;;;;;;;17.77;49.95;100177.22;690755;28;1393;-80
2022/05/23 01:50:58;;;;;;;6.68;5.50;;;;;;;17.74;49.90;100174.63;690265;28;1376;-80
2022/05/23 01:51:19;;;;;;;7.30;5.38;;;;;;;17.81;49.77;100173.66;689526;28;1342;-80
2022/05/23 01:51:41;;;;;;;6.93;5.10;;;;;;;17.76;49.82;100178.13;682643;28;1234;-80
2022/05/23 01:52:02;;;;;;;7.32;5.18;;;;;;;17.81;49.84;100180.69;692330;28;1165;-81
2022/05/23 01:52:28;;;;;;;7.40;5.10;;;;;;;17.72;49.76;100168.50;690615;28;975;-80
2022/05/23 01:52:51;;;;;;;7.13;5.20;;;;;;;17.73;49.85;100164.97;687682;28;1109;-81
2022/05/23 01:53:21;;;;;;;6.45;5.03;;;;;;;17.76;49.79;100178.13;687739;28;1286;-80
2022/05/23 01:53:54;;;;;;;7.38;4.60;;;;;;;17.70;49.96;100166.75;687782;28;1314;-80
2022/05/23 01:54:15;;;;;;;7.70;4.97;;;;;;;17.66;49.87;100165.94;687707;28;1159;-80
2022/05/23 01:54:39;;;;;;;7.75;5.50;;;;;;;17.74;49.94;100179.91;695458;28;1213;-80
2022/05/23 01:55:00;;;;;;;6.85;5.65;;;;;;;17.67;50.19;100167.66;690519;28;1105;-80
2022/05/23 01:55:21;;;;;;;6.15;5.25;;;;;;;17.72;50.11;100176.41;687631;28;1310;-80
2022/05/23 01:56:04;;;;;;;7.70;4.90;;;;;;;17.74;50.02;100174.63;682277;28;1112;-81
2022/05/23 01:56:44;;;;;;;5.90;5.00;;;;;;;17.70;49.86;100167.63;685052;28;1259;-81
2022/05/23 01:57:12;;;;;;;6.68;4.90;;;;;;;17.70;49.91;100167.63;682325;29;1001;-80
2022/05/23 01:57:33;;;;;;;8.90;5.10;;;;;;;17.68;49.74;100165.03;687823;28;859;-80
2022/05/23 01:57:54;;;;;;;7.88;5.10;;;;;;;17.66;49.65;100155.38;689658;28;1245;-81
2022/05/23 02:01:12;;;;;;;8.98;5.03;;;;;;;17.66;49.82;100165.94;689908;28;1521;-80
2022/05/23 02:01:13;;;;;;;6.32;5.13;;;;;;;17.70;49.77;100166.75;687741;28;1031;-80
2022/05/23 02:01:36;;;;;;;8.65;5.32;;;;;;;17.70;49.86;100172.91;684322;28;1352;-81
2022/05/23 02:01:57;;;;;;;8.95;5.30;;;;;;;17.67;49.94;100168.56;692997;28;1161;-80
2022/05/23 02:02:36;;;;;;;7.40;4.90;;;;;;;17.73;49.92;100172.88;690434;28;1242;-81
2022/05/23 02:02:57;;;;;;;7.70;4.88;;;;;;;17.71;49.89;100173.78;685169;28;1268;-80
2022/05/23 02:03:17;;;;;;;9.10;4.93;;;;;;;17.66;49.89;100165.94;687693;28;1197;-80
2022/05/23 02:03:41;;;;;;;9.95;5.07;;;;;;;17.74;49.81;100179.91;685006;28;1475;-80
2022/05/23 02:04:02;;;;;;;8.52;4.95;;;;;;;17.72;49.66;100176.41;687713;28;1335;-80